createdAt,value
2023-05-20T00:02:47.327Z,100415.22
2023-05-20T00:05:50.154Z,100430.22
2023-05-20T00:08:52.117Z,100427.72
2023-05-20T00:11:55.384Z,100421.91
2023-05-20T00:14:57.469Z,100392.19
2023-05-20T00:18:01.282Z,100411.00
2023-05-20T00:21:03.176Z,100410.22
2023-05-20T00:24:06.575Z,100415.72
2023-05-20T00:27:09.765Z,100418.34
2023-05-20T00:30:12.444Z,100406.19
2023-05-20T00:33:14.360Z,100407.19
2023-05-20T00:36:17.024Z,100403.28
2023-05-20T00:39:18.894Z,100407.56
2023-05-20T00:42:22.725Z,100397.06
2023-05-20T00:45:25.200Z,100405.31
2023-05-20T00:48:33.147Z,100397.78
2023-05-20T00:51:36.207Z,100396.66
2023-05-20T00:54:38.377Z,100401.31
2023-05-20T00:57:42.481Z,100377.13
2023-05-20T01:00:44.602Z,100392.50
2023-05-20T01:03:46.927Z,100381.50
2023-05-20T01:06:49.804Z,100387.97
2023-05-20T01:09:53.066Z,100405.66
2023-05-20T01:12:59.435Z,100397.47
2023-05-20T01:16:03.976Z,100403.84
2023-05-20T01:19:27.279Z,100399.19
2023-05-20T01:22:31.626Z,100406.88
2023-05-20T01:25:33.851Z,100400.53
2023-05-20T01:28:39.473Z,100404.34
2023-05-20T01:31:41.713Z,100405.53
2023-05-20T01:34:45.399Z,100404.22
2023-05-20T01:37:48.744Z,100404.84
2023-05-20T01:40:51.925Z,100416.03
2023-05-20T01:43:53.944Z,100418.88
2023-05-20T01:46:55.927Z,100410.88
2023-05-20T01:49:58.885Z,100400.38
2023-05-20T01:53:02.265Z,100418.34
2023-05-20T01:56:05.958Z,100403.03
2023-05-20T01:59:07.890Z,100420.06
2023-05-20T02:02:09.775Z,100414.22
2023-05-20T02:05:11.842Z,100410.22
2023-05-20T02:08:15.033Z,100412.03
2023-05-20T02:11:17.828Z,100406.72
2023-05-20T02:14:19.715Z,100414.88
2023-05-20T02:17:21.766Z,100419.06
2023-05-20T02:20:23.613Z,100412.06
2023-05-20T02:23:27.125Z,100411.69
2023-05-20T02:26:28.957Z,100416.72
2023-05-20T02:29:31.915Z,100419.38
2023-05-20T02:32:33.928Z,100419.38
2023-05-20T02:35:37.014Z,100416.22
2023-05-20T02:38:40.257Z,100410.53
2023-05-20T02:41:42.057Z,100411.22
2023-05-20T02:44:44.680Z,100412.03
2023-05-20T02:47:46.520Z,100424.06
2023-05-20T02:50:48.771Z,100426.41
2023-05-20T02:53:52.081Z,100430.38
2023-05-20T02:56:54.722Z,100417.88
2023-05-20T02:59:56.915Z,100416.88
2023-05-20T03:02:59.958Z,100426.34
2023-05-20T03:06:01.784Z,100429.50
2023-05-20T03:09:05.839Z,100425.50
2023-05-20T03:12:08.685Z,100436.81
2023-05-20T03:15:11.454Z,100426.50
2023-05-20T03:18:16.411Z,100434.16
2023-05-20T03:21:18.262Z,100427.63
2023-05-20T03:24:23.555Z,100426.97
2023-05-20T03:27:26.670Z,100438.78
2023-05-20T03:30:28.753Z,100437.44
2023-05-20T03:33:31.585Z,100431.28
2023-05-20T03:36:33.422Z,100439.13
2023-05-20T03:39:36.915Z,100440.13
2023-05-20T03:42:39.251Z,100445.44
2023-05-20T03:45:41.577Z,100455.16
2023-05-20T03:48:43.435Z,100435.50
2023-05-20T03:51:45.574Z,100449.31
2023-05-20T03:54:48.829Z,100448.31
2023-05-20T03:57:51.536Z,100460.56
2023-05-20T04:00:53.355Z,100464.56
2023-05-20T04:03:55.717Z,100438.25
2023-05-20T04:06:57.656Z,100455.59
2023-05-20T04:10:02.119Z,100448.75
2023-05-20T04:13:03.948Z,100451.91
2023-05-20T04:16:06.524Z,100459.06
2023-05-20T04:19:09.117Z,100472.03
2023-05-20T04:22:11.185Z,100470.63
2023-05-20T04:25:14.977Z,100475.25
2023-05-20T04:28:16.849Z,100482.47
2023-05-20T04:31:18.916Z,100479.16
2023-05-20T04:34:26.955Z,100481.75
2023-05-20T04:37:29.186Z,100470.03
2023-05-20T04:40:32.748Z,100485.44
2023-05-20T04:43:34.594Z,100475.50
2023-05-20T04:46:38.175Z,100486.09
2023-05-20T04:49:40.119Z,100477.41
2023-05-20T04:52:51.799Z,100473.75
2023-05-20T04:55:57.048Z,100483.88
2023-05-20T04:58:59.377Z,100476.94
2023-05-20T05:02:01.531Z,100484.28
2023-05-20T05:05:04.005Z,100489.09
2023-05-20T05:08:07.066Z,100457.03
2023-05-20T05:11:10.453Z,100477.66
2023-05-20T05:14:12.319Z,100477.28
2023-05-20T05:17:14.281Z,100473.31
2023-05-20T05:20:17.063Z,100477.91
2023-05-20T05:23:19.318Z,100471.91
2023-05-20T05:26:22.505Z,100478.31
2023-05-20T05:29:25.338Z,100476.84
2023-05-20T05:32:27.242Z,100477.59
2023-05-20T05:35:29.411Z,100487.09
2023-05-20T05:38:31.338Z,100478.88
2023-05-20T05:41:34.848Z,100477.09
2023-05-20T05:44:36.776Z,100472.03
2023-05-20T05:47:39.338Z,100487.19
2023-05-20T05:50:44.889Z,100489.94
2023-05-20T05:53:46.850Z,100487.63
2023-05-20T05:56:51.485Z,100486.16
2023-05-20T05:59:53.388Z,100496.31
2023-05-20T06:02:56.483Z,100493.66
2023-05-20T06:05:58.581Z,100496.88
2023-05-20T06:09:00.416Z,100497.44
2023-05-20T06:12:05.333Z,100497.13
2023-05-20T06:15:08.461Z,100486.19
2023-05-20T06:18:10.347Z,100492.41
2023-05-20T06:21:13.219Z,100485.88
2023-05-20T06:24:15.206Z,100495.13
2023-05-20T06:27:18.484Z,100495.38
2023-05-20T06:30:21.052Z,100483.22
2023-05-20T06:33:26.190Z,100480.38
2023-05-20T06:36:28.769Z,100487.00
2023-05-20T06:39:30.734Z,100492.00
2023-05-20T06:42:34.516Z,100476.06
2023-05-20T06:45:36.329Z,100479.09
2023-05-20T06:48:38.220Z,100477.34
2023-05-20T06:51:40.137Z,100478.19
2023-05-20T06:54:42.052Z,100480.53
2023-05-20T06:57:45.469Z,100471.97
2023-05-20T07:00:47.448Z,100458.56
2023-05-20T07:03:49.358Z,100467.75
2023-05-20T07:06:52.340Z,100475.47
2023-05-20T07:09:55.302Z,100454.00
2023-05-20T07:12:58.590Z,100467.63
2023-05-20T07:16:01.103Z,100472.03
2023-05-20T07:19:03.323Z,100460.47
2023-05-20T07:22:05.392Z,100449.47
2023-05-20T07:25:08.783Z,100458.66
2023-05-20T07:28:15.071Z,100439.97
2023-05-20T07:31:17.216Z,100451.78
2023-05-20T07:34:20.185Z,100449.69
2023-05-20T07:37:22.069Z,100454.69
2023-05-20T07:40:24.102Z,100456.53
2023-05-20T07:43:27.570Z,100460.94
2023-05-20T07:46:29.616Z,100462.59
2023-05-20T07:49:32.026Z,100465.50
2023-05-20T07:52:43.956Z,100467.59
2023-05-20T07:55:49.910Z,100437.91
2023-05-20T07:59:03.320Z,100452.81
2023-05-20T08:02:05.559Z,100403.13
2023-05-20T08:05:08.879Z,100353.34
2023-05-20T08:08:10.965Z,100321.66
2023-05-20T08:11:13.438Z,100361.88
2023-05-20T08:14:16.731Z,100362.66
2023-05-20T08:17:20.015Z,100384.22
2023-05-20T08:20:21.975Z,100382.34
2023-05-20T08:23:23.973Z,100371.78
2023-05-20T08:26:26.908Z,100379.41
2023-05-20T08:29:30.179Z,100370.16
2023-05-20T08:32:32.127Z,100429.34
2023-05-20T08:35:36.239Z,100430.75
2023-05-20T08:38:38.208Z,100427.06
2023-05-20T08:41:41.126Z,100421.22
2023-05-20T08:44:46.391Z,100425.31
2023-05-20T08:47:48.404Z,100399.22
2023-05-20T08:50:51.712Z,100412.03
2023-05-20T08:53:54.219Z,100388.47
2023-05-20T08:56:57.213Z,100399.25
2023-05-20T09:00:00.491Z,100405.34
2023-05-20T09:03:02.867Z,100389.28
2023-05-20T09:06:05.836Z,100380.28
2023-05-20T09:09:08.374Z,100365.19
2023-05-20T09:12:11.431Z,100376.09
2023-05-20T09:15:14.668Z,100383.97
2023-05-20T09:18:16.655Z,100369.03
2023-05-20T09:21:18.548Z,100367.91
2023-05-20T09:24:23.242Z,100361.16
2023-05-20T09:27:25.892Z,100373.88
2023-05-20T09:30:29.070Z,100376.03
2023-05-20T09:33:32.259Z,100371.84
2023-05-20T09:36:35.945Z,100366.72
2023-05-20T09:39:45.737Z,100357.09
2023-05-20T09:42:53.017Z,100350.25
2023-05-20T09:45:57.050Z,100340.03
2023-05-20T09:49:00.034Z,100339.06
2023-05-20T09:52:03.764Z,100333.47
2023-05-20T09:55:06.547Z,100334.75
2023-05-20T09:58:16.444Z,100324.00
2023-05-20T10:01:19.797Z,100320.28
2023-05-20T10:04:25.491Z,100332.34
2023-05-20T10:07:49.761Z,100323.25
2023-05-20T10:10:59.036Z,100317.75
2023-05-20T10:14:19.285Z,100315.78
2023-05-20T10:17:29.123Z,100308.16
2023-05-20T10:20:31.840Z,100301.78
2023-05-20T10:23:34.585Z,100288.22
2023-05-20T10:26:37.391Z,100292.72
2023-05-20T10:29:43.773Z,100297.66
2023-05-20T10:32:54.515Z,100285.50
2023-05-20T10:35:59.353Z,100288.13
2023-05-20T10:39:03.965Z,100277.47
2023-05-20T10:42:07.288Z,100273.22
2023-05-20T10:45:10.655Z,100273.03
2023-05-20T10:48:20.975Z,100279.59
2023-05-20T10:51:23.020Z,100259.63
2023-05-20T10:54:24.997Z,100265.06
2023-05-20T10:57:28.375Z,100267.69
2023-05-20T11:00:30.258Z,100265.44
2023-05-20T11:03:35.437Z,100258.94
2023-05-20T11:06:37.450Z,100263.19
2023-05-20T11:09:39.724Z,100240.34
2023-05-20T11:12:41.686Z,100265.81
2023-05-20T11:15:43.679Z,100267.81
2023-05-20T11:18:48.917Z,100237.22
2023-05-20T11:21:51.556Z,100253.00
2023-05-20T11:24:53.513Z,100243.88
2023-05-20T11:27:55.518Z,100245.91
2023-05-20T11:30:57.572Z,100246.91
2023-05-20T11:34:04.443Z,100246.31
2023-05-20T11:37:07.805Z,100252.56
2023-05-20T11:40:13.321Z,100247.78
2023-05-20T11:43:15.622Z,100249.31
2023-05-20T11:46:21.318Z,100237.50
2023-05-20T11:49:24.586Z,100246.88
2023-05-20T11:52:29.079Z,100245.31
2023-05-20T11:55:33.289Z,100230.94
2023-05-20T11:58:35.405Z,100241.47
2023-05-20T12:01:43.048Z,100234.25
2023-05-20T12:04:46.988Z,100225.25
2023-05-20T12:07:49.515Z,100229.47
2023-05-20T12:10:52.443Z,100221.56
2023-05-20T12:13:54.300Z,100228.22
2023-05-20T12:16:56.262Z,100233.13
2023-05-20T12:19:59.771Z,100214.78
2023-05-20T12:23:01.809Z,100216.16
2023-05-20T12:26:05.746Z,100226.47
2023-05-20T12:29:07.940Z,100217.44
2023-05-20T12:32:09.938Z,100209.38
2023-05-20T12:35:13.972Z,100207.69
2023-05-20T12:38:15.928Z,100209.72
2023-05-20T12:41:18.308Z,100212.06
2023-05-20T12:44:20.107Z,100201.59
2023-05-20T12:47:22.325Z,100182.78
2023-05-20T12:50:26.104Z,100216.63
2023-05-20T12:53:27.971Z,100201.94
2023-05-20T12:56:30.628Z,100200.69
2023-05-20T12:59:32.483Z,100199.84
2023-05-20T13:02:36.355Z,100200.03
2023-05-20T13:05:41.015Z,100190.81
2023-05-20T13:08:43.282Z,100183.97
2023-05-20T13:11:45.177Z,100187.03
2023-05-20T13:14:47.098Z,100175.81
2023-05-20T13:17:49.213Z,100164.31
2023-05-20T13:20:52.445Z,100164.34
2023-05-20T13:23:55.216Z,100165.84
2023-05-20T13:26:57.080Z,100166.28
2023-05-20T13:29:58.939Z,100163.84
2023-05-20T13:33:01.255Z,100162.81
2023-05-20T13:36:04.930Z,100150.16
2023-05-20T13:39:07.272Z,100161.47
2023-05-20T13:42:09.136Z,100154.78
2023-05-20T13:45:11.719Z,100169.53
2023-05-20T13:48:14.317Z,100160.97
2023-05-20T13:51:17.668Z,100147.44
2023-05-20T13:54:21.032Z,100154.19
2023-05-20T13:57:23.558Z,100158.97
2023-05-20T14:00:26.264Z,100148.97
2023-05-20T14:03:28.113Z,100148.91
2023-05-20T14:06:32.067Z,100159.78
2023-05-20T14:09:34.331Z,100149.09
2023-05-20T14:12:36.182Z,100151.63
2023-05-20T14:15:38.050Z,100145.75
2023-05-20T14:18:40.297Z,100136.94
2023-05-20T14:21:43.535Z,100137.66
2023-05-20T14:24:45.618Z,100132.13
2023-05-20T14:27:48.207Z,100135.25
2023-05-20T14:30:50.189Z,100134.25
2023-05-20T14:33:53.246Z,100105.22
2023-05-20T14:36:57.252Z,100130.72
2023-05-20T14:39:59.080Z,100116.88
2023-05-20T14:43:01.242Z,100120.09
2023-05-20T14:46:03.638Z,100116.38
2023-05-20T14:49:05.659Z,100120.13
2023-05-20T14:52:08.909Z,100122.75
2023-05-20T14:55:11.037Z,100109.88
2023-05-20T14:58:13.049Z,100122.56
2023-05-20T15:01:15.006Z,100118.56
2023-05-20T15:04:16.966Z,100121.13
2023-05-20T15:07:20.209Z,100121.69
2023-05-20T15:10:23.155Z,100127.44
2023-05-20T15:13:25.083Z,100105.38
2023-05-20T15:16:28.147Z,100110.75
2023-05-20T15:19:32.713Z,100113.06
2023-05-20T15:22:36.377Z,100098.56
2023-05-20T15:25:38.332Z,100108.72
2023-05-20T15:28:40.246Z,100100.00
2023-05-20T15:31:42.152Z,100093.47
2023-05-20T15:34:44.043Z,100095.06
2023-05-20T15:37:48.631Z,100096.25
2023-05-20T15:40:50.894Z,100076.63
2023-05-20T15:43:52.764Z,100084.03
2023-05-20T15:46:54.914Z,100085.56
2023-05-20T15:49:57.958Z,100081.69
2023-05-20T15:53:01.273Z,100091.63
2023-05-20T15:56:03.306Z,100080.31
2023-05-20T15:59:06.153Z,100056.16
2023-05-20T16:02:07.977Z,100074.78
2023-05-20T16:05:11.162Z,100081.38
2023-05-20T16:08:14.368Z,100075.28
2023-05-20T16:11:16.280Z,100073.72
2023-05-20T16:14:18.083Z,100076.69
2023-05-20T16:17:23.674Z,100074.44
2023-05-20T16:20:25.821Z,100079.63
2023-05-20T16:23:29.052Z,100078.56
2023-05-20T16:26:31.762Z,100079.28
2023-05-20T16:29:33.903Z,100064.66
2023-05-20T16:32:35.832Z,100075.41
2023-05-20T16:35:37.742Z,100081.25
2023-05-20T16:38:41.156Z,100075.47
2023-05-20T16:41:44.059Z,100079.19
2023-05-20T16:44:46.351Z,100089.84
2023-05-20T16:47:48.789Z,100080.28
2023-05-20T16:50:50.659Z,100082.88
2023-05-20T16:53:53.985Z,100078.13
2023-05-20T16:56:57.035Z,100090.41
2023-05-20T16:59:59.033Z,100091.88
2023-05-20T17:03:01.276Z,100082.28
2023-05-20T17:06:03.951Z,100047.94
2023-05-20T17:09:07.527Z,100081.00
2023-05-20T17:12:09.467Z,100082.91
2023-05-20T17:15:11.695Z,100096.47
2023-05-20T17:18:13.740Z,100089.75
2023-05-20T17:21:17.187Z,100089.84
2023-05-20T17:24:21.051Z,100113.22
2023-05-20T17:27:22.864Z,100100.03
2023-05-20T17:30:27.333Z,100085.84
2023-05-20T17:33:29.310Z,100091.34
2023-05-20T17:36:31.559Z,100097.53
2023-05-20T17:39:34.986Z,100106.81
2023-05-20T17:42:36.865Z,100099.31
2023-05-20T17:45:38.717Z,100108.16
2023-05-20T17:48:41.669Z,100095.69
2023-05-20T17:51:43.522Z,100110.75
2023-05-20T17:54:46.684Z,100099.41
2023-05-20T17:57:48.576Z,100106.13
2023-05-20T18:00:50.604Z,100095.84
2023-05-20T18:03:52.500Z,100089.81
2023-05-20T18:06:54.598Z,100090.41
2023-05-20T18:09:58.529Z,100098.09
2023-05-20T18:13:01.370Z,100093.53
2023-05-20T18:16:03.325Z,100092.72
2023-05-20T18:19:07.801Z,100094.78
2023-05-20T18:22:09.682Z,100103.25
2023-05-20T18:25:13.273Z,100100.66
2023-05-20T18:28:15.294Z,100110.44
2023-05-20T18:31:17.240Z,100094.44
2023-05-20T18:34:19.176Z,100099.59
2023-05-20T18:37:23.051Z,100100.09
2023-05-20T18:40:28.226Z,100103.34
2023-05-20T18:43:30.208Z,100102.88
2023-05-20T18:46:34.938Z,100095.31
2023-05-20T18:49:36.874Z,100124.59
2023-05-20T18:52:39.415Z,100125.91
2023-05-20T18:55:42.763Z,100108.56
2023-05-20T18:58:45.975Z,100120.47
2023-05-20T19:01:47.818Z,100114.84
2023-05-20T19:04:50.759Z,100120.63
2023-05-20T19:07:52.596Z,100136.09
2023-05-20T19:10:56.712Z,100127.22
2023-05-20T19:13:58.997Z,100126.91
2023-05-20T19:17:01.234Z,100116.03
2023-05-20T19:20:07.215Z,100119.66
2023-05-20T19:23:09.079Z,100122.44
2023-05-20T19:26:12.774Z,100113.94
2023-05-20T19:29:15.397Z,100138.97
2023-05-20T19:32:18.548Z,100115.75
2023-05-20T19:35:21.433Z,100139.03
2023-05-20T19:38:23.460Z,100139.72
2023-05-20T19:41:27.415Z,100138.03
2023-05-20T19:44:32.273Z,100145.16
2023-05-20T19:47:35.485Z,100085.91
2023-05-20T19:50:38.078Z,100053.31
2023-05-20T19:53:40.482Z,100076.75
2023-05-20T19:56:43.792Z,100128.50
2023-05-20T19:59:45.831Z,100127.66
2023-05-20T20:02:48.898Z,100143.31
2023-05-20T20:05:51.086Z,100145.97
2023-05-20T20:08:53.275Z,100142.34
2023-05-20T20:11:59.243Z,100151.75
2023-05-20T20:15:01.464Z,100145.38
2023-05-20T20:18:03.700Z,100163.84
2023-05-20T20:21:06.606Z,100145.34
2023-05-20T20:24:09.212Z,100148.63
2023-05-20T20:27:13.454Z,100152.16
2023-05-20T20:30:15.576Z,100139.03
2023-05-20T20:33:17.464Z,100148.66
2023-05-20T20:36:19.424Z,100153.59
2023-05-20T20:39:25.091Z,100150.22
2023-05-20T20:42:28.703Z,100149.47
2023-05-20T20:45:30.571Z,100122.88
2023-05-20T20:48:34.600Z,100145.03
2023-05-20T20:51:36.684Z,100148.53
2023-05-20T20:54:40.695Z,100146.16
2023-05-20T20:57:45.459Z,100136.78
2023-05-20T21:00:48.758Z,100127.50
2023-05-20T21:03:54.610Z,100128.66
2023-05-20T21:06:56.655Z,100138.56
2023-05-20T21:09:59.128Z,100116.44
2023-05-20T21:13:02.528Z,100135.63
2023-05-20T21:16:04.705Z,100137.31
2023-05-20T21:19:07.103Z,100127.94
2023-05-20T21:22:10.785Z,100140.28
2023-05-20T21:25:13.744Z,100058.78
2023-05-20T21:28:17.127Z,100139.16
2023-05-20T21:31:19.112Z,100144.03
2023-05-20T21:34:22.062Z,100142.13
2023-05-20T21:37:23.883Z,100141.50
2023-05-20T21:40:26.129Z,100138.59
2023-05-20T21:43:30.738Z,100137.03
2023-05-20T21:46:32.625Z,100138.94
2023-05-20T21:49:34.958Z,100142.84
2023-05-20T21:52:36.799Z,100144.69
2023-05-20T21:55:39.045Z,100141.97
2023-05-20T21:58:42.346Z,100132.75
2023-05-20T22:01:45.102Z,100135.81
2023-05-20T22:04:49.275Z,100120.09
2023-05-20T22:07:52.998Z,100122.56
2023-05-20T22:10:55.032Z,100123.78
2023-05-20T22:13:59.806Z,100134.09
2023-05-20T22:17:03.245Z,100142.28
2023-05-20T22:20:12.518Z,100141.31
2023-05-20T22:23:15.140Z,100131.13
2023-05-20T22:26:19.779Z,100121.50
2023-05-20T22:29:23.353Z,100141.38
2023-05-20T22:32:25.282Z,100110.25
2023-05-20T22:35:27.948Z,100132.59
2023-05-20T22:38:30.850Z,100146.75
2023-05-20T22:41:33.831Z,100149.56
2023-05-20T22:44:37.363Z,100141.41
2023-05-20T22:47:39.386Z,100137.81
2023-05-20T22:50:42.338Z,100147.78
2023-05-20T22:53:44.247Z,100143.81
2023-05-20T22:56:46.872Z,100133.25
2023-05-20T22:59:50.081Z,100148.41
2023-05-20T23:02:52.983Z,100152.50
2023-05-20T23:05:54.844Z,100163.41
2023-05-20T23:08:56.822Z,100163.09
2023-05-20T23:11:58.619Z,100154.16
2023-05-20T23:15:01.847Z,100154.53
2023-05-20T23:18:03.902Z,100145.19
2023-05-20T23:21:06.015Z,100147.97
2023-05-20T23:24:08.823Z,100135.59
2023-05-20T23:27:10.645Z,100155.06
2023-05-20T23:30:14.233Z,100149.81
2023-05-20T23:33:17.454Z,100143.94
2023-05-20T23:36:20.188Z,100139.28
2023-05-20T23:39:22.237Z,100149.84
2023-05-20T23:42:24.147Z,100140.94
2023-05-20T23:45:28.786Z,100130.31
2023-05-20T23:48:30.632Z,100145.16
2023-05-20T23:51:32.488Z,100126.34
2023-05-20T23:54:41.027Z,100088.84
2023-05-20T23:57:42.995Z,100052.22
